createdAt,value
2022-07-27T00:00:20.476Z,21.53
2022-07-27T00:02:25.336Z,21.48
2022-07-27T00:04:31.557Z,21.47
2022-07-27T00:06:39.297Z,21.42
2022-07-27T00:08:44.184Z,21.36
2022-07-27T00:10:50.300Z,21.35
2022-07-27T00:12:55.242Z,21.36
2022-07-27T00:15:00.889Z,21.33
2022-07-27T00:17:05.863Z,21.31
2022-07-27T00:19:11.172Z,21.29
2022-07-27T00:23:23.690Z,21.17
2022-07-27T00:25:29.556Z,21.16
2022-07-27T00:27:34.468Z,21.15
2022-07-27T00:29:39.402Z,21.15
2022-07-27T00:31:44.262Z,21.10
2022-07-27T00:33:49.335Z,21.12
2022-07-27T00:35:54.190Z,21.04
2022-07-27T00:37:59.094Z,21.04
2022-07-27T00:40:09.230Z,20.99
2022-07-27T00:42:14.114Z,20.90
2022-07-27T00:44:28.081Z,20.97
2022-07-27T00:46:33.092Z,20.95
2022-07-27T00:48:37.978Z,20.94
2022-07-27T00:50:45.530Z,20.95
2022-07-27T00:52:51.438Z,20.96
2022-07-27T00:54:56.599Z,20.98
2022-07-27T00:57:04.111Z,20.95
2022-07-27T00:59:10.889Z,20.95
2022-07-27T01:01:16.472Z,20.90
2022-07-27T01:03:23.272Z,20.89
2022-07-27T01:05:36.603Z,20.81
2022-07-27T01:07:43.486Z,20.87
2022-07-27T01:10:00.923Z,20.93
2022-07-27T01:12:11.320Z,21.00
2022-07-27T01:14:19.195Z,21.01
2022-07-27T01:16:24.322Z,21.02
2022-07-27T01:18:31.453Z,20.96
2022-07-27T01:20:37.599Z,20.94
2022-07-27T01:22:45.082Z,20.90
2022-07-27T01:24:50.890Z,20.87
2022-07-27T01:26:56.205Z,20.88
2022-07-27T01:29:02.402Z,20.88
2022-07-27T01:31:07.409Z,20.75
2022-07-27T01:33:13.214Z,20.57
2022-07-27T01:35:18.091Z,20.52
2022-07-27T01:37:26.005Z,20.43
2022-07-27T01:39:34.508Z,20.38
2022-07-27T01:41:39.319Z,20.40
2022-07-27T01:43:45.229Z,20.44
2022-07-27T01:45:50.486Z,20.41
2022-07-27T01:47:56.417Z,20.43
2022-07-27T01:50:01.364Z,20.40
2022-07-27T01:52:06.385Z,20.39
2022-07-27T01:54:11.293Z,20.34
2022-07-27T01:56:19.063Z,20.27
2022-07-27T01:58:24.168Z,20.24
2022-07-27T02:00:28.804Z,20.16
2022-07-27T02:02:33.682Z,20.09
2022-07-27T02:04:38.597Z,19.99
2022-07-27T02:06:43.756Z,19.98
2022-07-27T02:08:48.674Z,19.94
2022-07-27T02:11:06.016Z,19.98
2022-07-27T02:13:23.059Z,19.96
2022-07-27T02:15:42.131Z,19.92
2022-07-27T02:17:49.182Z,19.85
2022-07-27T02:19:55.416Z,19.84
2022-07-27T02:21:59.975Z,19.85
2022-07-27T02:24:05.234Z,19.83
2022-07-27T02:26:11.648Z,19.81
2022-07-27T02:28:19.147Z,19.84
2022-07-27T02:30:24.055Z,19.78
2022-07-27T02:32:29.009Z,19.70
2022-07-27T02:34:33.871Z,19.66
2022-07-27T02:36:38.812Z,19.67
2022-07-27T02:38:43.596Z,19.58
2022-07-27T02:40:48.468Z,19.50
2022-07-27T02:42:53.386Z,19.47
2022-07-27T02:45:00.888Z,19.48
2022-07-27T02:47:05.726Z,19.50
2022-07-27T02:49:11.321Z,19.48
2022-07-27T02:51:16.817Z,19.48
2022-07-27T02:53:21.723Z,19.50
2022-07-27T02:55:26.956Z,19.51
2022-07-27T02:57:34.419Z,19.50
2022-07-27T02:59:40.803Z,19.48
2022-07-27T03:01:49.035Z,19.49
2022-07-27T03:03:53.960Z,19.45
2022-07-27T03:05:59.020Z,19.47
2022-07-27T03:08:04.368Z,19.54
2022-07-27T03:10:10.306Z,19.56
2022-07-27T03:12:15.191Z,19.49
2022-07-27T03:14:20.211Z,19.51
2022-07-27T03:16:25.222Z,19.46
2022-07-27T03:18:32.597Z,19.47
2022-07-27T03:20:38.116Z,19.43
2022-07-27T03:22:43.101Z,19.42
2022-07-27T03:24:47.946Z,19.45
2022-07-27T03:26:52.911Z,19.49
2022-07-27T03:28:57.737Z,19.51
2022-07-27T03:31:03.906Z,19.56
2022-07-27T03:33:08.872Z,19.55
2022-07-27T03:35:16.534Z,19.56
2022-07-27T03:37:21.830Z,19.59
2022-07-27T03:39:27.015Z,19.61
2022-07-27T03:41:32.072Z,19.65
2022-07-27T03:43:36.866Z,19.60
2022-07-27T03:45:41.834Z,19.62
2022-07-27T03:47:46.785Z,19.57
2022-07-27T03:49:52.880Z,19.56
2022-07-27T03:52:00.448Z,19.54
2022-07-27T03:54:05.863Z,19.50
2022-07-27T03:56:10.881Z,19.51
2022-07-27T03:58:15.868Z,19.55
2022-07-27T04:00:21.003Z,19.53
2022-07-27T04:02:25.909Z,19.40
2022-07-27T04:04:31.077Z,19.28
2022-07-27T04:06:35.933Z,19.26
2022-07-27T04:08:43.504Z,19.16
2022-07-27T04:10:48.459Z,19.05
2022-07-27T04:12:53.789Z,19.08
2022-07-27T04:14:58.683Z,19.11
2022-07-27T04:17:03.879Z,19.16
2022-07-27T04:19:08.684Z,19.22
2022-07-27T04:21:16.089Z,19.35
2022-07-27T04:23:20.909Z,19.49
2022-07-27T04:25:28.474Z,19.56
2022-07-27T04:27:33.558Z,19.66
2022-07-27T04:29:38.445Z,19.68
2022-07-27T04:31:43.337Z,19.67
2022-07-27T04:33:48.328Z,19.58
2022-07-27T04:35:53.179Z,19.42
2022-07-27T04:37:59.859Z,19.37
2022-07-27T04:40:05.007Z,19.41
2022-07-27T04:42:12.705Z,19.53
2022-07-27T04:44:18.567Z,19.61
2022-07-27T04:46:23.734Z,19.64
2022-07-27T04:48:28.388Z,19.65
2022-07-27T04:50:33.250Z,19.63
2022-07-27T04:52:38.611Z,19.71
2022-07-27T04:54:43.508Z,19.80
2022-07-27T04:56:48.518Z,19.87
2022-07-27T04:58:56.045Z,19.95
2022-07-27T05:01:01.105Z,20.06
2022-07-27T05:03:06.463Z,20.08
2022-07-27T05:05:11.567Z,20.13
2022-07-27T05:07:16.512Z,20.18
2022-07-27T05:09:22.610Z,20.16
2022-07-27T05:11:27.645Z,20.08
2022-07-27T05:13:32.538Z,20.02
2022-07-27T05:15:55.132Z,20.04
2022-07-27T05:18:00.899Z,19.99
2022-07-27T05:20:06.856Z,20.01
2022-07-27T05:22:11.831Z,19.97
2022-07-27T05:24:16.710Z,19.99
2022-07-27T05:26:25.907Z,19.97
2022-07-27T05:28:31.318Z,19.94
2022-07-27T05:30:36.414Z,20.01
2022-07-27T05:32:43.683Z,20.06
2022-07-27T05:34:48.839Z,20.06
2022-07-27T05:36:53.417Z,20.16
2022-07-27T05:38:58.380Z,20.30
2022-07-27T05:41:03.336Z,20.45
2022-07-27T05:43:08.179Z,20.48
2022-07-27T05:45:16.925Z,20.64
2022-07-27T05:47:21.783Z,20.76
2022-07-27T05:49:29.351Z,20.80
2022-07-27T05:51:34.398Z,20.91
2022-07-27T05:53:39.389Z,20.99
2022-07-27T05:55:58.628Z,20.95
2022-07-27T05:58:05.053Z,21.03
2022-07-27T06:00:11.996Z,21.11
2022-07-27T06:02:19.811Z,21.12
2022-07-27T06:04:24.808Z,21.03
2022-07-27T06:06:44.712Z,20.99
2022-07-27T06:08:49.637Z,21.01
2022-07-27T06:10:54.368Z,20.91
2022-07-27T06:12:59.719Z,20.93
2022-07-27T06:15:04.576Z,20.89
2022-07-27T06:17:10.980Z,20.74
2022-07-27T06:19:16.205Z,20.83
2022-07-27T06:21:20.823Z,20.91
2022-07-27T06:23:28.755Z,21.01
2022-07-27T06:25:36.549Z,20.94
2022-07-27T06:27:41.625Z,21.00
2022-07-27T06:29:46.218Z,21.00
2022-07-27T06:31:51.156Z,21.01
2022-07-27T06:33:57.758Z,21.09
2022-07-27T06:36:08.522Z,21.15
2022-07-27T06:38:13.788Z,21.19
2022-07-27T06:40:24.426Z,21.27
2022-07-27T06:42:31.416Z,21.33
2022-07-27T06:44:36.421Z,21.40
2022-07-27T06:46:41.384Z,21.52
2022-07-27T06:48:46.595Z,21.61
2022-07-27T06:50:51.272Z,21.66
2022-07-27T06:52:56.102Z,21.68
2022-07-27T06:55:01.020Z,21.76
2022-07-27T06:57:08.576Z,21.72
2022-07-27T06:59:16.100Z,21.74
2022-07-27T07:01:21.145Z,21.82
2022-07-27T07:03:26.337Z,21.88
2022-07-27T07:05:31.442Z,21.93
2022-07-27T07:07:36.340Z,22.02
2022-07-27T07:09:41.399Z,22.12
2022-07-27T07:11:46.256Z,22.22
2022-07-27T07:13:53.772Z,22.28
2022-07-27T07:15:59.658Z,22.23
2022-07-27T07:18:05.706Z,22.30
2022-07-27T07:20:12.360Z,22.32
2022-07-27T07:22:20.067Z,22.40
2022-07-27T07:24:25.193Z,22.36
2022-07-27T07:26:30.035Z,22.26
2022-07-27T07:28:37.065Z,22.31
2022-07-27T07:30:44.512Z,22.27
2022-07-27T07:32:49.538Z,22.27
2022-07-27T07:34:56.360Z,22.47
2022-07-27T07:37:01.260Z,22.65
2022-07-27T07:39:06.582Z,22.61
2022-07-27T07:41:11.553Z,22.62
2022-07-27T07:43:16.801Z,22.60
2022-07-27T07:45:21.888Z,22.51
2022-07-27T07:47:29.140Z,22.53
2022-07-27T07:49:37.979Z,22.62
2022-07-27T07:51:45.576Z,22.74
2022-07-27T07:53:50.453Z,22.89
2022-07-27T07:55:56.873Z,23.00
2022-07-27T07:58:02.006Z,23.14
2022-07-27T08:00:09.710Z,23.27
2022-07-27T08:02:21.029Z,23.40
2022-07-27T08:04:28.562Z,23.53
2022-07-27T08:06:33.547Z,23.73
2022-07-27T08:08:38.325Z,23.70
2022-07-27T08:10:43.260Z,23.70
2022-07-27T08:12:50.675Z,23.68
2022-07-27T08:14:55.573Z,23.86
2022-07-27T08:17:00.487Z,23.85
2022-07-27T08:19:05.254Z,23.85
2022-07-27T08:21:12.864Z,23.91
2022-07-27T08:23:18.517Z,23.88
2022-07-27T08:25:23.439Z,23.82
2022-07-27T08:27:28.504Z,23.91
2022-07-27T08:29:36.913Z,23.99
2022-07-27T08:31:51.678Z,23.88
2022-07-27T08:33:57.717Z,23.93
2022-07-27T08:36:02.643Z,23.99
2022-07-27T08:38:11.957Z,24.09
2022-07-27T08:42:45.693Z,23.98
2022-07-27T08:44:54.742Z,23.99
2022-07-27T08:47:00.189Z,24.09
2022-07-27T08:49:05.407Z,24.02
2022-07-27T08:51:10.511Z,23.98
2022-07-27T08:53:18.491Z,24.09
2022-07-27T08:55:24.015Z,24.01
2022-07-27T08:57:28.882Z,24.26
2022-07-27T08:59:33.818Z,24.33
2022-07-27T09:01:39.563Z,24.39
2022-07-27T09:03:44.713Z,24.47
2022-07-27T09:05:54.160Z,24.42
2022-07-27T09:08:11.986Z,24.35
2022-07-27T09:10:32.090Z,24.54
2022-07-27T09:12:37.178Z,24.64
2022-07-27T09:14:43.894Z,24.68
2022-07-27T09:19:16.934Z,24.82
2022-07-27T09:21:23.648Z,24.94
2022-07-27T09:23:30.092Z,25.09
2022-07-27T09:26:02.093Z,25.10
2022-07-27T09:28:03.343Z,24.86
2022-07-27T09:30:09.427Z,24.85
2022-07-27T09:32:17.062Z,24.77
2022-07-27T09:34:30.952Z,24.96
2022-07-27T09:36:35.992Z,25.09
2022-07-27T09:38:40.547Z,25.07
2022-07-27T09:40:49.807Z,24.98
2022-07-27T09:44:19.761Z,25.10
2022-07-27T09:45:40.261Z,25.30
2022-07-27T09:47:46.934Z,25.46
2022-07-27T09:49:51.867Z,25.64
2022-07-27T09:52:00.593Z,25.55
2022-07-27T09:54:11.447Z,25.35
2022-07-27T09:56:19.144Z,25.37
2022-07-27T09:58:23.943Z,25.50
2022-07-27T10:00:29.805Z,25.61
2022-07-27T10:02:34.743Z,25.54
2022-07-27T10:04:39.630Z,25.50
2022-07-27T10:07:01.768Z,25.39
2022-07-27T10:09:07.595Z,25.10
2022-07-27T10:11:12.290Z,24.96
2022-07-27T10:13:20.124Z,24.74
2022-07-27T10:15:26.017Z,24.72
2022-07-27T10:17:31.411Z,24.73
2022-07-27T10:19:44.089Z,24.80
2022-07-27T10:21:50.414Z,24.98
2022-07-27T10:24:00.351Z,25.15
2022-07-27T10:26:21.474Z,25.44
2022-07-27T10:28:32.591Z,25.50
2022-07-27T10:30:37.698Z,25.72
2022-07-27T10:32:44.912Z,25.88
2022-07-27T10:34:51.940Z,25.71
2022-07-27T10:36:57.078Z,25.75
2022-07-27T10:39:03.917Z,25.87
2022-07-27T10:41:24.279Z,25.72
2022-07-27T10:43:33.289Z,25.64
2022-07-27T10:45:58.278Z,25.67
2022-07-27T10:48:07.842Z,25.55
2022-07-27T10:50:25.109Z,25.53
2022-07-27T10:52:44.311Z,25.30
2022-07-27T10:54:53.575Z,25.22
2022-07-27T10:57:06.907Z,24.96
2022-07-27T10:59:16.229Z,24.87
2022-07-27T11:01:25.131Z,24.73
2022-07-27T11:03:33.583Z,24.64
2022-07-27T11:06:00.073Z,24.71
2022-07-27T11:10:30.273Z,25.19
2022-07-27T11:12:35.166Z,25.17
2022-07-27T11:14:49.698Z,25.19
2022-07-27T11:16:56.588Z,25.19
2022-07-27T11:19:07.635Z,25.21
2022-07-27T11:21:26.507Z,25.37
2022-07-27T11:26:00.403Z,24.98
2022-07-27T11:28:10.020Z,25.07
2022-07-27T11:30:28.455Z,25.20
2022-07-27T11:32:38.626Z,25.32
2022-07-27T11:34:43.644Z,25.44
2022-07-27T11:36:50.228Z,25.35
2022-07-27T11:38:56.810Z,25.47
2022-07-27T11:41:15.332Z,25.46
2022-07-27T11:43:39.987Z,25.39
2022-07-27T11:45:49.684Z,25.31
2022-07-27T11:47:59.667Z,25.26
2022-07-27T11:50:08.362Z,25.39
2022-07-27T11:52:14.133Z,25.38
2022-07-27T11:54:26.227Z,25.47
2022-07-27T11:56:33.649Z,25.72
2022-07-27T11:59:03.638Z,25.85
2022-07-27T12:01:11.227Z,25.68
2022-07-27T12:03:23.593Z,25.64
2022-07-27T12:05:37.061Z,25.71
2022-07-27T12:07:42.333Z,25.84
2022-07-27T12:09:49.894Z,25.88
2022-07-27T12:11:57.824Z,25.99
2022-07-27T12:14:02.676Z,26.13
2022-07-27T12:16:07.742Z,26.26
2022-07-27T12:18:15.218Z,26.34
2022-07-27T12:20:24.324Z,26.21
2022-07-27T12:22:31.930Z,26.02
2022-07-27T12:24:38.931Z,25.68
2022-07-27T12:26:43.871Z,25.34
2022-07-27T12:28:48.814Z,25.26
2022-07-27T12:30:54.595Z,25.34
2022-07-27T12:32:59.675Z,25.29
2022-07-27T12:35:17.917Z,25.18
2022-07-27T12:37:23.242Z,25.40
2022-07-27T12:39:28.385Z,25.64
2022-07-27T12:41:36.695Z,25.40
2022-07-27T12:43:41.332Z,25.16
2022-07-27T12:45:46.095Z,25.06
2022-07-27T12:47:50.804Z,25.11
2022-07-27T12:50:11.454Z,25.04
2022-07-27T12:52:16.010Z,25.07
2022-07-27T12:54:21.019Z,25.10
2022-07-27T12:56:27.367Z,25.09
2022-07-27T12:58:32.596Z,25.06
2022-07-27T13:00:37.412Z,24.98
2022-07-27T13:02:42.321Z,24.93
2022-07-27T13:04:48.120Z,24.91
2022-07-27T13:06:55.425Z,24.93
2022-07-27T13:09:00.429Z,25.11
2022-07-27T13:11:05.107Z,25.27
2022-07-27T13:13:10.388Z,25.25
2022-07-27T13:15:15.040Z,25.27
2022-07-27T13:17:21.783Z,25.36
2022-07-27T13:19:26.433Z,25.40
2022-07-27T13:21:30.999Z,25.61
2022-07-27T13:23:38.221Z,25.55
2022-07-27T13:25:43.515Z,25.75
2022-07-27T13:27:48.972Z,25.92
2022-07-27T13:29:53.561Z,25.99
2022-07-27T13:31:58.297Z,25.66
2022-07-27T13:34:03.017Z,25.65
2022-07-27T13:36:09.769Z,25.74
2022-07-27T13:38:17.144Z,25.89
2022-07-27T13:40:24.634Z,25.99
2022-07-27T13:42:29.290Z,25.98
2022-07-27T13:45:02.219Z,25.98
2022-07-27T13:46:58.546Z,25.92
2022-07-27T13:49:03.373Z,25.83
2022-07-27T13:51:08.061Z,25.95
2022-07-27T13:53:15.320Z,26.08
2022-07-27T13:55:23.625Z,26.23
2022-07-27T13:57:34.972Z,26.30
2022-07-27T13:59:39.603Z,26.61
2022-07-27T14:01:44.299Z,26.73
2022-07-27T14:03:48.949Z,26.77
2022-07-27T14:05:53.686Z,26.67
2022-07-27T14:07:59.499Z,26.84
2022-07-27T14:10:16.566Z,26.99
2022-07-27T14:12:21.125Z,27.15
2022-07-27T14:14:28.371Z,27.01
2022-07-27T14:16:33.003Z,26.97
2022-07-27T14:18:38.074Z,27.19
2022-07-27T14:20:42.680Z,27.38
2022-07-27T14:22:47.238Z,27.30
2022-07-27T14:24:51.882Z,27.71
2022-07-27T14:26:56.548Z,28.04
2022-07-27T14:29:01.224Z,28.14
2022-07-27T14:31:09.380Z,27.75
2022-07-27T14:33:15.586Z,27.34
2022-07-27T14:35:20.663Z,27.07
2022-07-27T14:37:25.236Z,26.96
2022-07-27T14:39:29.867Z,26.63
2022-07-27T14:41:35.456Z,26.57
2022-07-27T14:43:40.340Z,26.78
2022-07-27T14:45:46.368Z,27.02
2022-07-27T14:47:53.856Z,27.27
2022-07-27T14:49:58.869Z,27.32
2022-07-27T14:52:03.487Z,27.45
2022-07-27T14:54:08.095Z,27.71
2022-07-27T14:56:12.674Z,27.86
2022-07-27T14:58:17.487Z,27.98
2022-07-27T15:00:22.700Z,28.01
2022-07-27T15:02:27.433Z,28.09
2022-07-27T15:04:35.109Z,28.14
2022-07-27T15:06:39.778Z,28.38
2022-07-27T15:08:44.434Z,28.67
2022-07-27T15:10:49.331Z,28.92
2022-07-27T15:12:54.118Z,28.70
2022-07-27T15:14:58.931Z,28.77
2022-07-27T15:17:04.135Z,28.57
2022-07-27T15:19:08.749Z,28.31
2022-07-27T15:21:15.931Z,28.15
2022-07-27T15:23:20.624Z,28.08
2022-07-27T15:25:25.246Z,28.42
2022-07-27T15:27:29.811Z,28.64
2022-07-27T15:29:34.483Z,28.68
2022-07-27T15:31:39.086Z,28.62
2022-07-27T15:33:44.066Z,28.61
2022-07-27T15:35:48.683Z,28.68
2022-07-27T15:37:56.032Z,28.52
2022-07-27T15:40:22.067Z,28.16
2022-07-27T15:42:26.660Z,27.72
2022-07-27T15:44:31.286Z,27.87
2022-07-27T15:46:35.983Z,28.00
2022-07-27T15:48:40.752Z,28.31
2022-07-27T15:50:51.070Z,28.86
2022-07-27T15:52:58.237Z,29.21
2022-07-27T15:55:02.951Z,29.46
2022-07-27T15:57:09.740Z,29.56
2022-07-27T15:59:14.975Z,29.70
2022-07-27T16:01:21.060Z,30.01
2022-07-27T16:03:27.336Z,30.17
2022-07-27T16:05:33.180Z,30.30
2022-07-27T16:07:41.610Z,30.34
2022-07-27T16:09:49.188Z,30.27
2022-07-27T16:11:53.733Z,30.17
2022-07-27T16:13:58.316Z,30.50
2022-07-27T16:16:15.356Z,30.61
2022-07-27T16:18:20.048Z,30.40
2022-07-27T16:20:24.672Z,30.63
2022-07-27T16:22:30.355Z,30.83
2022-07-27T16:24:38.159Z,31.09
2022-07-27T16:26:45.599Z,31.07
2022-07-27T16:28:51.440Z,30.99
2022-07-27T16:30:56.507Z,30.69
2022-07-27T16:33:01.604Z,30.17
2022-07-27T16:35:10.058Z,29.77
2022-07-27T16:37:15.179Z,29.49
2022-07-27T16:39:21.919Z,28.86
2022-07-27T16:41:26.660Z,28.57
2022-07-27T16:43:37.905Z,28.38
2022-07-27T16:45:42.857Z,28.10
2022-07-27T16:47:47.498Z,27.77
2022-07-27T16:49:52.230Z,27.49
2022-07-27T16:51:56.863Z,27.32
2022-07-27T16:54:01.520Z,27.07
2022-07-27T16:56:06.929Z,26.91
2022-07-27T16:58:12.138Z,26.69
2022-07-27T17:00:20.850Z,26.49
2022-07-27T17:02:30.044Z,26.49
2022-07-27T17:04:34.761Z,26.45
2022-07-27T17:06:39.484Z,26.42
2022-07-27T17:08:44.423Z,26.43
2022-07-27T17:10:49.258Z,26.41
2022-07-27T17:12:54.011Z,26.24
2022-07-27T17:14:59.141Z,26.13
2022-07-27T17:17:06.522Z,26.13
2022-07-27T17:19:11.400Z,25.96
2022-07-27T17:21:16.186Z,25.89
2022-07-27T17:23:20.789Z,25.90
2022-07-27T17:25:25.602Z,25.85
2022-07-27T17:27:30.263Z,25.80
2022-07-27T17:29:34.844Z,25.75
2022-07-27T17:31:39.601Z,25.60
2022-07-27T17:33:46.921Z,25.61
2022-07-27T17:35:51.583Z,25.49
2022-07-27T17:38:06.104Z,25.48
2022-07-27T17:40:12.031Z,25.42
2022-07-27T17:42:16.636Z,25.45
2022-07-27T17:44:21.765Z,25.38
2022-07-27T17:46:26.856Z,25.40
2022-07-27T17:48:31.524Z,25.30
2022-07-27T17:50:38.736Z,25.26
2022-07-27T17:52:43.627Z,25.25
2022-07-27T17:54:48.381Z,25.25
2022-07-27T17:56:53.041Z,25.23
2022-07-27T17:59:14.066Z,25.21
2022-07-27T18:01:47.548Z,25.08
2022-07-27T18:03:48.997Z,24.89
2022-07-27T18:05:56.349Z,24.79
2022-07-27T18:08:01.039Z,24.78
2022-07-27T18:10:05.776Z,24.68
2022-07-27T18:12:10.698Z,24.71
2022-07-27T18:14:15.394Z,24.68
2022-07-27T18:16:17.999Z,24.67
2022-07-27T18:18:25.093Z,24.58
2022-07-27T18:20:29.720Z,24.60
2022-07-27T18:22:38.680Z,24.55
2022-07-27T18:24:43.384Z,24.56
2022-07-27T18:26:49.436Z,24.52
2022-07-27T18:28:57.708Z,24.49
2022-07-27T18:31:02.508Z,24.48
2022-07-27T18:33:07.178Z,24.46
2022-07-27T18:35:11.935Z,24.38
2022-07-27T18:37:17.212Z,24.37
2022-07-27T18:39:32.252Z,24.31
2022-07-27T18:41:40.749Z,24.28
2022-07-27T18:43:51.001Z,24.21
2022-07-27T18:45:55.765Z,24.16
2022-07-27T18:48:01.040Z,24.13
2022-07-27T18:50:06.270Z,24.07
2022-07-27T18:52:10.874Z,23.99
2022-07-27T18:54:15.554Z,23.91
2022-07-27T18:56:22.713Z,23.87
2022-07-27T18:58:27.900Z,23.83
2022-07-27T19:00:33.564Z,23.80
2022-07-27T19:02:39.469Z,23.77
2022-07-27T19:04:44.360Z,23.70
2022-07-27T19:06:49.487Z,23.67
2022-07-27T19:08:54.600Z,23.64
2022-07-27T19:10:59.467Z,23.58
2022-07-27T19:13:06.760Z,23.52
2022-07-27T19:15:11.719Z,23.44
2022-07-27T19:17:16.470Z,23.43
2022-07-27T19:19:23.387Z,23.39
2022-07-27T19:21:28.608Z,23.36
2022-07-27T19:23:33.446Z,23.31
2022-07-27T19:25:38.045Z,23.24
2022-07-27T19:27:42.767Z,23.25
2022-07-27T19:29:50.043Z,23.24
2022-07-27T19:31:54.597Z,23.16
2022-07-27T19:33:59.188Z,23.15
2022-07-27T19:36:03.835Z,23.14
2022-07-27T19:38:08.595Z,23.11
2022-07-27T19:40:42.778Z,23.08
2022-07-27T19:42:39.563Z,23.01
2022-07-27T19:44:44.206Z,23.00
2022-07-27T19:46:51.430Z,23.00
2022-07-27T19:48:56.138Z,22.96
2022-07-27T19:51:06.369Z,22.91
2022-07-27T19:53:11.809Z,22.93
2022-07-27T19:55:17.039Z,22.88
2022-07-27T19:57:21.654Z,22.83
2022-07-27T19:59:26.280Z,22.76
2022-07-27T20:01:30.962Z,22.76
2022-07-27T20:03:52.465Z,22.76
2022-07-27T20:05:59.853Z,22.70
2022-07-27T20:08:04.520Z,22.70
2022-07-27T20:10:09.466Z,22.70
2022-07-27T20:12:14.089Z,22.73
2022-07-27T20:14:22.234Z,22.70
2022-07-27T20:16:27.035Z,22.67
2022-07-27T20:18:31.954Z,22.65
2022-07-27T20:20:40.243Z,22.65
2022-07-27T20:22:44.886Z,22.60
2022-07-27T20:24:49.477Z,22.51
2022-07-27T20:26:54.225Z,22.52
2022-07-27T20:28:59.947Z,22.48
2022-07-27T20:31:04.680Z,22.42
2022-07-27T20:33:09.343Z,22.36
2022-07-27T20:35:14.026Z,22.30
2022-07-27T20:37:21.251Z,22.22
2022-07-27T20:39:26.392Z,22.18
2022-07-27T20:41:31.057Z,22.13
2022-07-27T20:43:35.946Z,22.08
2022-07-27T20:45:40.879Z,22.06
2022-07-27T20:47:45.488Z,22.04
2022-07-27T20:49:50.102Z,21.98
2022-07-27T20:51:54.834Z,21.96
2022-07-27T20:54:02.096Z,21.89
2022-07-27T20:56:06.884Z,21.83
2022-07-27T20:58:11.752Z,21.82
2022-07-27T21:00:16.964Z,21.75
2022-07-27T21:02:21.614Z,21.70
2022-07-27T21:04:26.592Z,21.66
2022-07-27T21:06:31.589Z,21.64
2022-07-27T21:08:36.224Z,21.62
2022-07-27T21:10:43.431Z,21.64
2022-07-27T21:12:48.068Z,21.63
2022-07-27T21:14:54.722Z,21.58
2022-07-27T21:16:59.673Z,21.52
2022-07-27T21:19:04.412Z,21.41
2022-07-27T21:21:09.047Z,21.32
2022-07-27T21:23:26.033Z,21.28
2022-07-27T21:25:30.668Z,21.20
2022-07-27T21:27:38.177Z,21.16
2022-07-27T21:29:45.858Z,21.11
2022-07-27T21:31:51.146Z,21.14
2022-07-27T21:33:55.801Z,21.15
2022-07-27T21:36:00.459Z,21.15
2022-07-27T21:38:05.078Z,21.14
2022-07-27T21:40:10.369Z,21.12
2022-07-27T21:42:15.082Z,21.12
2022-07-27T21:44:23.659Z,21.12
2022-07-27T21:46:28.429Z,21.10
2022-07-27T21:48:33.275Z,21.12
2022-07-27T21:50:37.823Z,21.12
2022-07-27T21:52:42.439Z,21.12
2022-07-27T21:54:47.113Z,21.12
2022-07-27T21:56:51.740Z,21.10
2022-07-27T21:58:56.418Z,21.03
2022-07-27T22:01:03.857Z,21.02
2022-07-27T22:03:08.549Z,21.01
2022-07-27T22:05:14.426Z,20.99
2022-07-27T22:07:19.533Z,20.97
2022-07-27T22:09:24.372Z,20.97
2022-07-27T22:11:28.952Z,20.92
2022-07-27T22:13:33.525Z,20.89
2022-07-27T22:15:38.124Z,20.79
2022-07-27T22:17:50.428Z,20.73
2022-07-27T22:19:55.621Z,20.66
2022-07-27T22:22:06.194Z,20.63
2022-07-27T22:24:13.935Z,20.64
2022-07-27T22:26:18.831Z,20.60
2022-07-27T22:28:25.417Z,20.61
2022-07-27T22:30:31.107Z,20.59
2022-07-27T22:32:35.836Z,20.61
2022-07-27T22:34:43.240Z,20.51
2022-07-27T22:36:47.864Z,20.44
2022-07-27T22:38:53.102Z,20.39
2022-07-27T22:40:58.069Z,20.35
2022-07-27T22:43:02.636Z,20.22
2022-07-27T22:45:07.893Z,20.23
2022-07-27T22:47:12.640Z,20.22
2022-07-27T22:49:17.475Z,20.19
2022-07-27T22:51:24.614Z,20.22
2022-07-27T22:53:29.322Z,20.20
2022-07-27T22:55:33.942Z,20.21
2022-07-27T22:57:38.569Z,20.21
2022-07-27T22:59:43.504Z,20.20
2022-07-27T23:01:48.630Z,20.19
2022-07-27T23:03:53.332Z,20.13
2022-07-27T23:05:57.978Z,20.13
2022-07-27T23:08:05.134Z,20.08
2022-07-27T23:10:30.853Z,20.11
2022-07-27T23:12:35.656Z,20.12
2022-07-27T23:14:40.270Z,20.11
2022-07-27T23:16:45.130Z,20.07
2022-07-27T23:18:50.055Z,20.03
2022-07-27T23:20:54.678Z,20.07
2022-07-27T23:22:59.261Z,20.10
2022-07-27T23:25:07.316Z,20.12
2022-07-27T23:27:11.926Z,20.15
2022-07-27T23:29:16.489Z,20.13
2022-07-27T23:31:21.139Z,20.14
2022-07-27T23:33:25.758Z,20.11
2022-07-27T23:35:30.597Z,20.11
2022-07-27T23:37:35.185Z,20.12
2022-07-27T23:39:39.819Z,20.12
2022-07-27T23:41:49.966Z,20.07
2022-07-27T23:43:55.015Z,20.03
2022-07-27T23:45:59.646Z,20.03
2022-07-27T23:48:04.253Z,20.01
2022-07-27T23:50:09.271Z,20.00
2022-07-27T23:52:13.987Z,20.01
2022-07-27T23:54:18.601Z,20.01
2022-07-27T23:56:23.213Z,19.95
2022-07-27T23:58:30.395Z,19.87
